sensor_id;sensor_type;location;lat;lon;timestamp;pressure;altitude;pressure_sealevel;temperature;humidity
50093;BME280;35974;47.752;10.290;2023-05-25T00:00:57;94062.03;;;9.32;100.00
50093;BME280;35974;47.752;10.290;2023-05-25T00:03:28;94056.34;;;9.22;100.00
50093;BME280;35974;47.752;10.290;2023-05-25T00:05:57;94063.56;;;9.20;100.00
50093;BME280;35974;47.752;10.290;2023-05-25T00:08:23;94058.59;;;9.25;100.00
50093;BME280;35974;47.752;10.290;2023-05-25T00:10:50;94054.72;;;9.21;100.00
50093;BME280;35974;47.752;10.290;2023-05-25T00:13:16;94055.09;;;9.18;100.00
50093;BME280;35974;47.752;10.290;2023-05-25T00:15:43;94053.13;;;9.20;100.00
50093;BME280;35974;47.752;10.290;2023-05-25T00:18:09;94049.56;;;9.27;100.00
50093;BME280;35974;47.752;10.290;2023-05-25T00:20:36;94055.97;;;9.25;100.00
50093;BME280;35974;47.752;10.290;2023-05-25T00:23:03;94051.97;;;9.29;100.00
50093;BME280;35974;47.752;10.290;2023-05-25T00:25:29;94044.84;;;9.44;100.00
50093;BME280;35974;47.752;10.290;2023-05-25T00:27:56;94043.34;;;9.28;100.00
50093;BME280;35974;47.752;10.290;2023-05-25T00:30:22;94041.47;;;9.22;100.00
50093;BME280;35974;47.752;10.290;2023-05-25T00:32:49;94035.84;;;9.19;100.00
50093;BME280;35974;47.752;10.290;2023-05-25T00:35:16;94026.16;;;9.12;100.00
50093;BME280;35974;47.752;10.290;2023-05-25T00:37:43;94031.03;;;9.22;100.00
50093;BME280;35974;47.752;10.290;2023-05-25T00:40:10;94032.78;;;9.08;100.00
50093;BME280;35974;47.752;10.290;2023-05-25T00:42:47;94025.31;;;9.05;100.00
50093;BME280;35974;47.752;10.290;2023-05-25T00:45:13;94028.91;;;9.04;100.00
50093;BME280;35974;47.752;10.290;2023-05-25T00:47:40;94026.06;;;8.99;100.00
50093;BME280;35974;47.752;10.290;2023-05-25T00:50:07;94028.53;;;9.07;100.00
50093;BME280;35974;47.752;10.290;2023-05-25T00:52:34;94043.97;;;9.02;100.00
50093;BME280;35974;47.752;10.290;2023-05-25T00:55:01;94032.50;;;9.03;100.00
50093;BME280;35974;47.752;10.290;2023-05-25T00:57:28;94038.38;;;9.05;100.00
50093;BME280;35974;47.752;10.290;2023-05-25T00:59:59;94036.56;;;9.06;100.00
50093;BME280;35974;47.752;10.290;2023-05-25T01:02:27;94030.25;;;9.22;100.00
50093;BME280;35974;47.752;10.290;2023-05-25T01:04:55;94033.09;;;9.27;100.00
50093;BME280;35974;47.752;10.290;2023-05-25T01:07:25;94040.59;;;9.08;100.00
50093;BME280;35974;47.752;10.290;2023-05-25T01:10:01;94029.47;;;9.00;100.00
50093;BME280;35974;47.752;10.290;2023-05-25T01:12:30;94026.44;;;8.96;100.00
50093;BME280;35974;47.752;10.290;2023-05-25T01:14:57;94027.38;;;9.10;100.00
50093;BME280;35974;47.752;10.290;2023-05-25T01:17:25;94035.25;;;8.95;100.00
50093;BME280;35974;47.752;10.290;2023-05-25T01:19:54;94033.25;;;8.90;100.00
50093;BME280;35974;47.752;10.290;2023-05-25T01:22:41;94027.81;;;8.92;100.00
50093;BME280;35974;47.752;10.290;2023-05-25T01:25:18;94032.78;;;8.87;100.00
50093;BME280;35974;47.752;10.290;2023-05-25T01:27:54;94025.97;;;8.86;100.00
50093;BME280;35974;47.752;10.290;2023-05-25T01:30:24;94028.53;;;9.07;100.00
50093;BME280;35974;47.752;10.290;2023-05-25T01:32:51;94026.44;;;8.96;100.00
50093;BME280;35974;47.752;10.290;2023-05-25T01:35:18;94032.91;;;9.00;100.00
50093;BME280;35974;47.752;10.290;2023-05-25T01:37:46;94033.34;;;8.82;100.00
50093;BME280;35974;47.752;10.290;2023-05-25T01:40:12;94026.53;;;8.81;100.00
50093;BME280;35974;47.752;10.290;2023-05-25T01:42:39;94026.31;;;8.76;100.00
50093;BME280;35974;47.752;10.290;2023-05-25T01:45:06;94027.06;;;8.70;100.00
50093;BME280;35974;47.752;10.290;2023-05-25T01:50:17;94026.25;;;8.69;100.00
50093;BME280;35974;47.752;10.290;2023-05-25T01:52:54;94030.22;;;8.65;100.00
50093;BME280;35974;47.752;10.290;2023-05-25T01:55:21;94027.47;;;8.73;100.00
50093;BME280;35974;47.752;10.290;2023-05-25T01:57:52;94032.31;;;8.76;100.00
50093;BME280;35974;47.752;10.290;2023-05-25T02:00:25;94033.44;;;8.67;100.00
50093;BME280;35974;47.752;10.290;2023-05-25T02:02:52;94034.69;;;8.71;100.00
50093;BME280;35974;47.752;10.290;2023-05-25T02:05:20;94034.75;;;8.78;100.00
50093;BME280;35974;47.752;10.290;2023-05-25T02:07:46;94029.91;;;8.75;100.00
50093;BME280;35974;47.752;10.290;2023-05-25T02:10:13;94016.75;;;8.90;100.00
50093;BME280;35974;47.752;10.290;2023-05-25T02:12:39;94015.03;;;8.75;100.00
50093;BME280;35974;47.752;10.290;2023-05-25T02:15:05;94014.66;;;8.78;100.00
50093;BME280;35974;47.752;10.290;2023-05-25T02:17:32;94013.53;;;8.88;100.00
50093;BME280;35974;47.752;10.290;2023-05-25T02:19:58;94017.13;;;8.87;100.00
50093;BME280;35974;47.752;10.290;2023-05-25T02:22:25;94011.63;;;9.03;100.00
50093;BME280;35974;47.752;10.290;2023-05-25T02:24:52;94012.88;;;9.07;100.00
50093;BME280;35974;47.752;10.290;2023-05-25T02:27:18;94009.50;;;8.85;100.00
50093;BME280;35974;47.752;10.290;2023-05-25T02:29:44;94008.78;;;8.98;100.00
50093;BME280;35974;47.752;10.290;2023-05-25T02:32:11;94008.69;;;8.85;100.00
50093;BME280;35974;47.752;10.290;2023-05-25T02:34:44;93999.09;;;8.92;100.00
50093;BME280;35974;47.752;10.290;2023-05-25T02:37:12;94001.88;;;8.84;100.00
50093;BME280;35974;47.752;10.290;2023-05-25T02:39:38;94001.88;;;8.84;100.00
50093;BME280;35974;47.752;10.290;2023-05-25T02:42:05;94003.81;;;8.75;100.00
50093;BME280;35974;47.752;10.290;2023-05-25T02:44:31;94006.22;;;8.76;100.00
50093;BME280;35974;47.752;10.290;2023-05-25T02:46:57;94004.97;;;8.72;100.00
50093;BME280;35974;47.752;10.290;2023-05-25T02:49:24;93998.50;;;8.61;100.00
50093;BME280;35974;47.752;10.290;2023-05-25T02:51:50;94005.44;;;8.76;100.00
50093;BME280;35974;47.752;10.290;2023-05-25T02:54:17;94001.41;;;8.73;100.00
50093;BME280;35974;47.752;10.290;2023-05-25T02:56:43;93998.81;;;8.52;100.00
50093;BME280;35974;47.752;10.290;2023-05-25T02:59:10;94002.78;;;8.48;100.00
50093;BME280;35974;47.752;10.290;2023-05-25T03:01:36;94009.34;;;8.65;100.00
50093;BME280;35974;47.752;10.290;2023-05-25T03:04:02;94010.59;;;8.69;100.00
50093;BME280;35974;47.752;10.290;2023-05-25T03:06:29;94013.72;;;8.58;100.00
50093;BME280;35974;47.752;10.290;2023-05-25T03:08:55;94011.25;;;8.50;100.00
50093;BME280;35974;47.752;10.290;2023-05-25T03:11:22;94008.38;;;8.45;100.00
50093;BME280;35974;47.752;10.290;2023-05-25T03:13:49;94013.31;;;8.61;100.00
50093;BME280;35974;47.752;10.290;2023-05-25T03:16:15;94018.31;;;8.56;100.00
50093;BME280;35974;47.752;10.290;2023-05-25T03:18:42;94018.16;;;8.64;100.00
50093;BME280;35974;47.752;10.290;2023-05-25T03:21:08;94011.91;;;8.58;100.00
50093;BME280;35974;47.752;10.290;2023-05-25T03:23:34;94014.09;;;8.55;100.00
50093;BME280;35974;47.752;10.290;2023-05-25T03:26:01;94014.94;;;8.62;100.00
50093;BME280;35974;47.752;10.290;2023-05-25T03:28:27;94022.63;;;8.70;100.00
50093;BME280;35974;47.752;10.290;2023-05-25T03:30:54;94022.59;;;8.64;100.00
50093;BME280;35974;47.752;10.290;2023-05-25T03:33:21;94011.34;;;8.63;100.00
50093;BME280;35974;47.752;10.290;2023-05-25T03:35:47;94025.00;;;8.65;100.00
50093;BME280;35974;47.752;10.290;2023-05-25T03:38:14;94023.88;;;8.53;100.00
50093;BME280;35974;47.752;10.290;2023-05-25T03:40:40;94032.72;;;8.52;100.00
50093;BME280;35974;47.752;10.290;2023-05-25T03:43:07;94023.66;;;8.48;100.00
50093;BME280;35974;47.752;10.290;2023-05-25T03:45:33;94016.06;;;8.53;100.00
50093;BME280;35974;47.752;10.290;2023-05-25T03:47:59;94016.84;;;8.47;100.00
50093;BME280;35974;47.752;10.290;2023-05-25T03:50:26;94021.13;;;8.39;100.00
50093;BME280;35974;47.752;10.290;2023-05-25T03:52:52;94011.06;;;8.36;100.00
50093;BME280;35974;47.752;10.290;2023-05-25T03:55:18;94020.06;;;8.49;100.00
50093;BME280;35974;47.752;10.290;2023-05-25T03:57:45;94022.09;;;8.53;100.00
50093;BME280;35974;47.752;10.290;2023-05-25T04:00:11;94016.06;;;8.53;100.00
50093;BME280;35974;47.752;10.290;2023-05-25T04:02:38;94024.00;;;8.45;100.00
50093;BME280;35974;47.752;10.290;2023-05-25T04:05:04;94023.56;;;8.41;100.00
50093;BME280;35974;47.752;10.290;2023-05-25T04:07:32;93924.69;;;7.75;100.00
50093;BME280;35974;47.752;10.290;2023-05-25T04:09:58;94031.47;;;8.69;100.00
50093;BME280;35974;47.752;10.290;2023-05-25T04:12:25;94027.00;;;8.63;100.00
50093;BME280;35974;47.752;10.290;2023-05-25T04:14:52;94034.97;;;8.55;100.00
50093;BME280;35974;47.752;10.290;2023-05-25T04:17:18;94033.44;;;8.67;100.00
50093;BME280;35974;47.752;10.290;2023-05-25T04:19:47;94023.50;;;8.77;100.00
50093;BME280;35974;47.752;10.290;2023-05-25T04:22:13;94022.72;;;8.84;100.00
50093;BME280;35974;47.752;10.290;2023-05-25T04:24:43;94018.75;;;8.88;100.00
50093;BME280;35974;47.752;10.290;2023-05-25T04:27:10;94024.06;;;9.01;100.00
50093;BME280;35974;47.752;10.290;2023-05-25T04:29:36;94020.47;;;9.02;100.00
50093;BME280;35974;47.752;10.290;2023-05-25T04:32:03;94022.97;;;9.17;100.00
50093;BME280;35974;47.752;10.290;2023-05-25T04:34:31;94025.47;;;9.32;100.00
50093;BME280;35974;47.752;10.290;2023-05-25T04:36:59;94030.25;;;9.22;100.00
50093;BME280;35974;47.752;10.290;2023-05-25T04:39:33;94029.88;;;9.25;100.00
50093;BME280;35974;47.752;10.290;2023-05-25T04:42:10;94030.66;;;9.25;100.00
50093;BME280;35974;47.752;10.290;2023-05-25T04:44:39;94033.13;;;9.33;100.00
50093;BME280;35974;47.752;10.290;2023-05-25T04:49:36;94032.84;;;9.57;100.00
50093;BME280;35974;47.752;10.290;2023-05-25T04:52:04;94040.31;;;9.66;100.00
50093;BME280;35974;47.752;10.290;2023-05-25T04:54:30;94044.16;;;9.64;100.00
50093;BME280;35974;47.752;10.290;2023-05-25T04:56:57;94035.03;;;9.95;100.00
50093;BME280;35974;47.752;10.290;2023-05-25T04:59:24;94039.97;;;9.76;100.00
50093;BME280;35974;47.752;10.290;2023-05-25T05:01:52;94036.97;;;9.79;100.00
50093;BME280;35974;47.752;10.290;2023-05-25T05:04:19;94041.41;;;9.85;100.00
50093;BME280;35974;47.752;10.290;2023-05-25T05:06:46;94042.25;;;9.93;100.00
50093;BME280;35974;47.752;10.290;2023-05-25T05:09:12;94040.34;;;10.21;100.00
50093;BME280;35974;47.752;10.290;2023-05-25T05:11:39;94039.91;;;10.11;100.00
50093;BME280;35974;47.752;10.290;2023-05-25T05:14:05;94040.75;;;10.25;100.00
50093;BME280;35974;47.752;10.290;2023-05-25T05:16:32;94043.97;;;10.20;100.00
50093;BME280;35974;47.752;10.290;2023-05-25T05:19:00;94043.16;;;10.26;100.00
50093;BME280;35974;47.752;10.290;2023-05-25T05:21:27;94044.03;;;10.34;100.00
50093;BME280;35974;47.752;10.290;2023-05-25T05:23:53;94042.78;;;10.30;100.00
50093;BME280;35974;47.752;10.290;2023-05-25T05:26:21;94037.56;;;10.36;100.00
50093;BME280;35974;47.752;10.290;2023-05-25T05:28:48;94042.00;;;10.36;100.00
50093;BME280;35974;47.752;10.290;2023-05-25T05:31:14;94049.06;;;10.42;100.00
50093;BME280;35974;47.752;10.290;2023-05-25T05:33:42;94058.97;;;10.53;100.00
50093;BME280;35974;47.752;10.290;2023-05-25T05:36:09;94062.19;;;10.55;100.00
50093;BME280;35974;47.752;10.290;2023-05-25T05:38:35;94057.78;;;10.83;100.00
50093;BME280;35974;47.752;10.290;2023-05-25T05:41:05;94052.94;;;10.99;100.00
50093;BME280;35974;47.752;10.290;2023-05-25T05:43:41;94047.31;;;10.89;100.00
50093;BME280;35974;47.752;10.290;2023-05-25T05:46:09;94047.72;;;10.73;100.00
50093;BME280;35974;47.752;10.290;2023-05-25T05:48:38;94053.75;;;10.80;100.00
50093;BME280;35974;47.752;10.290;2023-05-25T05:51:04;94062.19;;;10.75;100.00
50093;BME280;35974;47.752;10.290;2023-05-25T05:53:31;94054.97;;;10.97;100.00
50093;BME280;35974;47.752;10.290;2023-05-25T05:55:58;94052.94;;;10.99;100.00
50093;BME280;35974;47.752;10.290;2023-05-25T05:58:25;94050.13;;;11.08;100.00
50093;BME280;35974;47.752;10.290;2023-05-25T06:00:52;94057.78;;;11.29;100.00
50093;BME280;35974;47.752;10.290;2023-05-25T06:03:19;94055.78;;;11.18;100.00
50093;BME280;35974;47.752;10.290;2023-05-25T06:05:45;94057.38;;;11.19;100.00
50093;BME280;35974;47.752;10.290;2023-05-25T06:08:12;94063.03;;;11.23;100.00
50093;BME280;35974;47.752;10.290;2023-05-25T06:10:39;94057.75;;;11.43;100.00
50093;BME280;35974;47.752;10.290;2023-05-25T06:13:05;94059.38;;;11.44;100.00
50093;BME280;35974;47.752;10.290;2023-05-25T06:15:33;94067.84;;;11.46;100.00
50093;BME280;35974;47.752;10.290;2023-05-25T06:18:00;94064.81;;;11.49;100.00
50093;BME280;35974;47.752;10.290;2023-05-25T06:20:26;94060.53;;;11.61;100.00
50093;BME280;35974;47.752;10.290;2023-05-25T06:22:53;94067.75;;;11.72;100.00
50093;BME280;35974;47.752;10.290;2023-05-25T06:25:19;94067.78;;;11.66;100.00
50093;BME280;35974;47.752;10.290;2023-05-25T06:27:45;94072.22;;;11.65;100.00
50093;BME280;35974;47.752;10.290;2023-05-25T06:30:12;94073.81;;;11.80;100.00
50093;BME280;35974;47.752;10.290;2023-05-25T06:32:38;94073.38;;;11.96;100.00
50093;BME280;35974;47.752;10.290;2023-05-25T06:35:05;94074.19;;;11.90;100.00
50093;BME280;35974;47.752;10.290;2023-05-25T06:37:33;94074.97;;;11.97;100.00
50093;BME280;35974;47.752;10.290;2023-05-25T06:40:03;94072.34;;;11.97;100.00
50093;BME280;35974;47.752;10.290;2023-05-25T06:42:38;94074.59;;;11.87;100.00
50093;BME280;35974;47.752;10.290;2023-05-25T06:45:05;94074.19;;;11.90;100.00
50093;BME280;35974;47.752;10.290;2023-05-25T06:47:32;94083.00;;;12.16;100.00
50093;BME280;35974;47.752;10.290;2023-05-25T06:49:59;94070.94;;;12.01;100.00
50093;BME280;35974;47.752;10.290;2023-05-25T06:52:26;94083.81;;;12.09;100.00
50093;BME280;35974;47.752;10.290;2023-05-25T06:54:53;94081.78;;;12.12;100.00
50093;BME280;35974;47.752;10.290;2023-05-25T06:57:20;94085.78;;;12.21;100.00
50093;BME280;35974;47.752;10.290;2023-05-25T06:59:47;94082.97;;;12.22;100.00
50093;BME280;35974;47.752;10.290;2023-05-25T07:02:13;94077.53;;;12.56;100.00
50093;BME280;35974;47.752;10.290;2023-05-25T07:04:39;94075.53;;;12.58;100.00
50093;BME280;35974;47.752;10.290;2023-05-25T07:07:06;94071.53;;;12.49;100.00
50093;BME280;35974;47.752;10.290;2023-05-25T07:09:32;94064.84;;;12.85;100.00
50093;BME280;35974;47.752;10.290;2023-05-25T07:11:58;94065.31;;;12.75;100.00
50093;BME280;35974;47.752;10.290;2023-05-25T07:14:25;94075.31;;;12.91;100.00
50093;BME280;35974;47.752;10.290;2023-05-25T07:16:51;94068.84;;;12.94;100.00
50093;BME280;35974;47.752;10.290;2023-05-25T07:19:18;94071.72;;;12.86;100.00
50093;BME280;35974;47.752;10.290;2023-05-25T07:21:44;94066.69;;;13.09;100.00
50093;BME280;35974;47.752;10.290;2023-05-25T07:24:10;94063.03;;;13.10;100.00
50093;BME280;35974;47.752;10.290;2023-05-25T07:26:37;94073.13;;;13.13;100.00
50093;BME280;35974;47.752;10.290;2023-05-25T07:29:03;94065.81;;;13.15;100.00
50093;BME280;35974;47.752;10.290;2023-05-25T07:31:29;94069.50;;;13.14;100.00
50093;BME280;35974;47.752;10.290;2023-05-25T07:33:56;94069.00;;;13.24;100.00
50093;BME280;35974;47.752;10.290;2023-05-25T07:36:22;94067.75;;;13.27;100.00
50093;BME280;35974;47.752;10.290;2023-05-25T07:38:50;94068.06;;;13.44;100.00
50093;BME280;35974;47.752;10.290;2023-05-25T07:41:16;94080.31;;;13.25;100.00
50093;BME280;35974;47.752;10.290;2023-05-25T07:43:42;94076.34;;;13.15;100.00
50093;BME280;35974;47.752;10.290;2023-05-25T07:46:09;94087.69;;;13.41;100.00
50093;BME280;35974;47.752;10.290;2023-05-25T07:48:35;94088.63;;;13.47;100.00
50093;BME280;35974;47.752;10.290;2023-05-25T07:51:02;94087.28;;;13.63;100.00
50093;BME280;35974;47.752;10.290;2023-05-25T07:53:28;94080.16;;;13.88;100.00
50093;BME280;35974;47.752;10.290;2023-05-25T07:55:55;94084.53;;;13.95;100.00
50093;BME280;35974;47.752;10.290;2023-05-25T07:58:21;94092.72;;;13.86;100.00
50093;BME280;35974;47.752;10.290;2023-05-25T08:00:47;94092.81;;;14.17;100.00
50093;BME280;35974;47.752;10.290;2023-05-25T08:03:15;94088.50;;;14.04;100.00
50093;BME280;35974;47.752;10.290;2023-05-25T08:05:41;94090.81;;;14.12;100.00
50093;BME280;35974;47.752;10.290;2023-05-25T08:08:09;94103.25;;;14.05;100.00
50093;BME280;35974;47.752;10.290;2023-05-25T08:10:36;94103.25;;;13.86;100.00
50093;BME280;35974;47.752;10.290;2023-05-25T08:13:02;94100.03;;;13.84;100.00
50093;BME280;35974;47.752;10.290;2023-05-25T08:15:28;94103.03;;;14.06;100.00
50093;BME280;35974;47.752;10.290;2023-05-25T08:17:55;94107.91;;;14.21;100.00
50093;BME280;35974;47.752;10.290;2023-05-25T08:20:22;94106.88;;;14.59;100.00
50093;BME280;35974;47.752;10.290;2023-05-25T08:22:50;94114.03;;;14.71;100.00
50093;BME280;35974;47.752;10.290;2023-05-25T08:25:18;94113.69;;;14.67;100.00
50093;BME280;35974;47.752;10.290;2023-05-25T08:27:45;94117.69;;;14.70;100.00
50093;BME280;35974;47.752;10.290;2023-05-25T08:30:12;94114.03;;;14.71;100.00
50093;BME280;35974;47.752;10.290;2023-05-25T08:32:38;94114.69;;;14.96;100.00
50093;BME280;35974;47.752;10.290;2023-05-25T08:35:05;94118.03;;;15.04;100.00
50093;BME280;35974;47.752;10.290;2023-05-25T08:37:31;94122.88;;;15.30;100.00
50093;BME280;35974;47.752;10.290;2023-05-25T08:39:57;94123.88;;;15.06;100.00
50093;BME280;35974;47.752;10.290;2023-05-25T08:42:26;94124.81;;;14.81;100.00
50093;BME280;35974;47.752;10.290;2023-05-25T08:44:52;94127.47;;;14.81;100.00
50093;BME280;35974;47.752;10.290;2023-05-25T08:47:20;94136.34;;;14.98;100.00
50093;BME280;35974;47.752;10.290;2023-05-25T08:49:48;94135.94;;;15.25;100.00
50093;BME280;35974;47.752;10.290;2023-05-25T08:52:16;94137.81;;;15.36;100.00
50093;BME280;35974;47.752;10.290;2023-05-25T08:54:45;94145.16;;;15.34;100.00
50093;BME280;35974;47.752;10.290;2023-05-25T08:57:19;94141.81;;;15.27;100.00
50093;BME280;35974;47.752;10.290;2023-05-25T09:02:34;94139.44;;;15.61;100.00
50093;BME280;35974;47.752;10.290;2023-05-25T09:05:04;94128.56;;;15.57;100.00
50093;BME280;35974;47.752;10.290;2023-05-25T09:07:31;94128.22;;;15.54;100.00
50093;BME280;35974;47.752;10.290;2023-05-25T09:09:57;94136.94;;;15.66;100.00
50093;BME280;35974;47.752;10.290;2023-05-25T09:12:29;94136.50;;;15.93;100.00
50093;BME280;35974;47.752;10.290;2023-05-25T09:14:59;94136.72;;;16.03;100.00
50093;BME280;35974;47.752;10.290;2023-05-25T09:17:26;94144.97;;;16.19;100.00
50093;BME280;35974;47.752;10.290;2023-05-25T09:19:52;94141.34;;;15.96;100.00
50093;BME280;35974;47.752;10.290;2023-05-25T09:22:19;94141.34;;;15.96;100.00
50093;BME280;35974;47.752;10.290;2023-05-25T09:24:46;94152.34;;;16.17;100.00
50093;BME280;35974;47.752;10.290;2023-05-25T09:27:16;94148.66;;;16.18;100.00
50093;BME280;35974;47.752;10.290;2023-05-25T09:29:45;94158.28;;;16.24;100.00
50093;BME280;35974;47.752;10.290;2023-05-25T09:32:11;94157.78;;;16.51;100.00
50093;BME280;35974;47.752;10.290;2023-05-25T09:34:38;94165.13;;;16.48;100.00
50093;BME280;35974;47.752;10.290;2023-05-25T09:37:10;94162.59;;;16.54;100.00
50093;BME280;35974;47.752;10.290;2023-05-25T09:39:36;94164.88;;;16.62;100.00
50093;BME280;35974;47.752;10.290;2023-05-25T09:42:03;94162.34;;;16.67;100.00
50093;BME280;35974;47.752;10.290;2023-05-25T09:44:29;94170.13;;;16.86;100.00
50093;BME280;35974;47.752;10.290;2023-05-25T09:46:56;94174.34;;;16.98;100.00
50093;BME280;35974;47.752;10.290;2023-05-25T09:49:22;94175.50;;;17.19;100.00
50093;BME280;35974;47.752;10.290;2023-05-25T09:51:49;94182.66;;;17.19;100.00
50093;BME280;35974;47.752;10.290;2023-05-25T09:54:15;94177.53;;;17.46;100.00
50093;BME280;35974;47.752;10.290;2023-05-25T09:56:42;94178.44;;;17.69;100.00
50093;BME280;35974;47.752;10.290;2023-05-25T09:59:09;94165.94;;;17.81;100.00
50093;BME280;35974;47.752;10.290;2023-05-25T10:01:36;94172.34;;;17.85;100.00
50093;BME280;35974;47.752;10.290;2023-05-25T10:04:03;94172.81;;;17.82;100.00
50093;BME280;35974;47.752;10.290;2023-05-25T10:06:31;94174.47;;;18.00;100.00
50093;BME280;35974;47.752;10.290;2023-05-25T10:08:59;94166.00;;;18.20;100.00
50093;BME280;35974;47.752;10.290;2023-05-25T10:11:26;94170.28;;;18.21;100.00
50093;BME280;35974;47.752;10.290;2023-05-25T10:13:53;94172.34;;;18.19;100.00
50093;BME280;35974;47.752;10.290;2023-05-25T10:16:29;94179.03;;;18.44;100.00
50093;BME280;35974;47.752;10.290;2023-05-25T10:21:33;94173.16;;;17.86;100.00
50093;BME280;35974;47.752;10.290;2023-05-25T10:24:03;94177.03;;;18.12;100.00
50093;BME280;35974;47.752;10.290;2023-05-25T10:26:32;94174.72;;;18.38;100.00
50093;BME280;35974;47.752;10.290;2023-05-25T10:29:00;94173.44;;;18.62;100.00
50093;BME280;35974;47.752;10.290;2023-05-25T10:31:30;94171.97;;;18.72;100.00
50093;BME280;35974;47.752;10.290;2023-05-25T10:33:57;94177.47;;;18.87;100.00
50093;BME280;35974;47.752;10.290;2023-05-25T10:36:24;94176.66;;;19.09;100.00
50093;BME280;35974;47.752;10.290;2023-05-25T10:38:52;94173.84;;;18.93;100.00
50093;BME280;35974;47.752;10.290;2023-05-25T10:41:19;94174.88;;;18.70;100.00
50093;BME280;35974;47.752;10.290;2023-05-25T10:43:46;94182.00;;;18.70;100.00
50093;BME280;35974;47.752;10.290;2023-05-25T10:46:12;94179.59;;;18.68;100.00
50093;BME280;35974;47.752;10.290;2023-05-25T10:48:47;94177.22;;;18.27;100.00
50093;BME280;35974;47.752;10.290;2023-05-25T10:51:13;94185.03;;;18.17;100.00
50093;BME280;35974;47.752;10.290;2023-05-25T10:53:43;94184.31;;;18.44;100.00
50093;BME280;35974;47.752;10.290;2023-05-25T10:56:11;94183.66;;;18.54;100.00
50093;BME280;35974;47.752;10.290;2023-05-25T10:58:42;94183.13;;;18.74;100.00
50093;BME280;35974;47.752;10.290;2023-05-25T11:01:10;94188.19;;;18.97;100.00
50093;BME280;35974;47.752;10.290;2023-05-25T11:06:10;94189.41;;;18.67;100.00
50093;BME280;35974;47.752;10.290;2023-05-25T11:08:56;94183.28;;;18.84;100.00
50093;BME280;35974;47.752;10.290;2023-05-25T11:17:05;94178.03;;;19.38;100.00
50093;BME280;35974;47.752;10.290;2023-05-25T11:19:40;94182.31;;;19.45;100.00
50093;BME280;35974;47.752;10.290;2023-05-25T11:22:11;94168.59;;;19.53;100.00
50093;BME280;35974;47.752;10.290;2023-05-25T11:24:38;94170.38;;;19.74;99.47
50093;BME280;35974;47.752;10.290;2023-05-25T11:27:04;94174.25;;;19.94;100.00
50093;BME280;35974;47.752;10.290;2023-05-25T11:29:31;94170.63;;;19.73;100.00
50093;BME280;35974;47.752;10.290;2023-05-25T11:31:58;94172.59;;;19.83;100.00
50093;BME280;35974;47.752;10.290;2023-05-25T11:34:25;94174.25;;;19.94;100.00
50093;BME280;35974;47.752;10.290;2023-05-25T11:37:02;94169.22;;;19.98;99.26
50093;BME280;35974;47.752;10.290;2023-05-25T11:39:29;94169.63;;;19.79;100.00
50093;BME280;35974;47.752;10.290;2023-05-25T11:42:03;94165.66;;;19.82;100.00
50093;BME280;35974;47.752;10.290;2023-05-25T11:44:30;94169.03;;;19.45;100.00
50093;BME280;35974;47.752;10.290;2023-05-25T11:47:04;94178.69;;;19.56;100.00
50093;BME280;35974;47.752;10.290;2023-05-25T11:49:34;94171.09;;;19.37;100.00
50093;BME280;35974;47.752;10.290;2023-05-25T11:52:03;94171.56;;;19.56;100.00
50093;BME280;35974;47.752;10.290;2023-05-25T11:54:30;94180.19;;;19.74;100.00
50093;BME280;35974;47.752;10.290;2023-05-25T11:56:58;94178.47;;;19.90;100.00
50093;BME280;35974;47.752;10.290;2023-05-25T11:59:25;94183.75;;;19.85;99.79
50093;BME280;35974;47.752;10.290;2023-05-25T12:01:58;94185.19;;;19.70;100.00
50093;BME280;35974;47.752;10.290;2023-05-25T12:04:25;94184.69;;;19.73;100.00
50093;BME280;35974;47.752;10.290;2023-05-25T12:06:53;94183.06;;;20.00;99.83
50093;BME280;35974;47.752;10.290;2023-05-25T12:09:26;94183.56;;;19.97;100.00
50093;BME280;35974;47.752;10.290;2023-05-25T12:11:52;94180.22;;;20.11;100.00
50093;BME280;35974;47.752;10.290;2023-05-25T12:14:18;94181.31;;;20.16;100.00
50093;BME280;35974;47.752;10.290;2023-05-25T12:16:45;94180.03;;;19.86;100.00
50093;BME280;35974;47.752;10.290;2023-05-25T12:19:12;94182.25;;;19.99;100.00
50093;BME280;35974;47.752;10.290;2023-05-25T12:21:39;94175.22;;;19.78;100.00
50093;BME280;35974;47.752;10.290;2023-05-25T12:24:07;94180.63;;;19.66;100.00
50093;BME280;35974;47.752;10.290;2023-05-25T12:26:33;94178.78;;;19.66;100.00
50093;BME280;35974;47.752;10.290;2023-05-25T12:29:01;94186.47;;;19.95;98.75
50093;BME280;35974;47.752;10.290;2023-05-25T12:31:29;94178.56;;;20.00;100.00
50093;BME280;35974;47.752;10.290;2023-05-25T12:34:03;94179.06;;;19.97;100.00
50093;BME280;35974;47.752;10.290;2023-05-25T12:39:09;94171.69;;;20.09;100.00
50093;BME280;35974;47.752;10.290;2023-05-25T12:44:16;94178.00;;;19.98;98.65
50093;BME280;35974;47.752;10.290;2023-05-25T12:46:43;94171.97;;;19.75;100.00
50093;BME280;35974;47.752;10.290;2023-05-25T12:49:27;94178.09;;;19.49;100.00
50093;BME280;35974;47.752;10.290;2023-05-25T12:51:54;94170.91;;;19.44;100.00
50093;BME280;35974;47.752;10.290;2023-05-25T12:54:37;94170.78;;;19.61;100.00
50093;BME280;35974;47.752;10.290;2023-05-25T12:57:05;94178.97;;;19.87;100.00
50093;BME280;35974;47.752;10.290;2023-05-25T12:59:32;94183.16;;;19.78;100.00
50093;BME280;35974;47.752;10.290;2023-05-25T13:02:00;94195.53;;;19.39;100.00
50093;BME280;35974;47.752;10.290;2023-05-25T13:04:27;94193.81;;;19.01;100.00
50093;BME280;35974;47.752;10.290;2023-05-25T13:06:53;94188.13;;;18.92;100.00
50093;BME280;35974;47.752;10.290;2023-05-25T13:09:22;94199.13;;;19.28;100.00